Time;durP1;ratioP1;P1;durP2;ratioP2;P2;SDS_P1;SDS_P2;PMS_P1;PMS_P2;Temp;Humidity;BMP_temperature;BMP_pressure;BME280_temperature;BME280_humidity;BME280_pressure;Samples;Min_cycle;Max_cycle;Signal;HPM_P1;HPM_P2
2022/07/04 00:00:23;;;;;;;;;;;27.70;91.80;;;;;;5124525;28;19934;-46
2022/07/04 00:02:49;;;;;;;;;;;27.70;91.90;;;;;;5124277;28;20088;-44
2022/07/04 00:05:17;;;;;;;;;;;27.60;91.90;;;;;;5124423;28;20208;-43
2022/07/04 00:07:45;;;;;;;;;;;27.60;91.80;;;;;;5124466;28;19904;-48
2022/07/04 00:10:12;;;;;;;;;;;27.60;91.80;;;;;;5123867;28;19910;-43
2022/07/04 00:12:38;;;;;;;;;;;27.60;91.90;;;;;;5124366;28;19911;-43
2022/07/04 00:15:05;;;;;;;;;;;27.50;92.00;;;;;;5124285;28;20137;-43
2022/07/04 00:17:32;;;;;;;;;;;27.50;91.70;;;;;;5124236;28;20329;-41
2022/07/04 00:19:58;;;;;;;;;;;27.50;91.80;;;;;;5124388;28;19904;-42
2022/07/04 00:22:24;;;;;;;;;;;27.50;91.80;;;;;;5124257;28;19932;-48
2022/07/04 00:24:50;;;;;;;;;;;27.40;92.00;;;;;;5123702;28;19941;-42
2022/07/04 00:27:16;;;;;;;;;;;27.40;91.80;;;;;;5124211;28;20096;-44
2022/07/04 00:29:42;;;;;;;;;;;27.40;91.80;;;;;;5124105;28;19927;-45
2022/07/04 00:32:09;;;;;;;;;;;27.40;91.70;;;;;;5124312;28;20184;-42
2022/07/04 00:34:35;;;;;;;;;;;27.30;91.60;;;;;;5127732;28;19933;-42
2022/07/04 00:37:01;;;;;;;;;;;27.30;91.60;;;;;;5128096;28;19910;-45
2022/07/04 00:39:27;;;;;;;;;;;27.30;91.70;;;;;;5127448;28;19903;-49
2022/07/04 00:41:53;;;;;;;;;;;27.30;91.80;;;;;;5127906;28;19904;-44
2022/07/04 00:44:20;;;;;;;;;;;27.30;91.80;;;;;;5128196;28;20080;-42
2022/07/04 00:46:47;;;;;;;;;;;27.30;91.70;;;;;;5127934;28;19904;-45
2022/07/04 00:49:14;;;;;;;;;;;27.30;91.70;;;;;;5127958;28;19983;-46
2022/07/04 00:51:41;;;;;;;;;;;27.30;91.90;;;;;;5127798;28;19900;-43
2022/07/04 00:54:08;;;;;;;;;;;27.20;91.50;;;;;;5127416;28;19978;-45
2022/07/04 00:56:38;;;;;;;;;;;27.20;91.70;;;;;;5127481;28;19903;-44
2022/07/04 00:59:05;;;;;;;;;;;27.20;91.70;;;;;;5127917;28;19930;-47
2022/07/04 01:01:31;;;;;;;;;;;27.20;91.90;;;;;;5127694;28;19904;-41
2022/07/04 01:03:57;;;;;;;;;;;27.20;91.90;;;;;;5127840;28;20042;-45
2022/07/04 01:06:24;;;;;;;;;;;27.20;91.80;;;;;;5127635;28;19910;-46
2022/07/04 01:08:50;;;;;;;;;;;27.20;91.80;;;;;;5127516;28;19903;-46
2022/07/04 01:11:16;;;;;;;;;;;27.20;91.60;;;;;;5127380;28;19903;-47
2022/07/04 01:13:43;;;;;;;;;;;27.20;91.70;;;;;;5127863;28;20175;-45
2022/07/04 01:16:12;;;;;;;;;;;27.20;91.80;;;;;;5127583;28;19904;-50
2022/07/04 01:18:38;;;;;;;;;;;27.30;91.70;;;;;;5127581;28;19911;-45
2022/07/04 01:21:04;;;;;;;;;;;27.20;91.90;;;;;;5127403;28;19961;-48
2022/07/04 01:23:31;;;;;;;;;;;27.30;91.60;;;;;;5126864;28;20100;-46
2022/07/04 01:25:57;;;;;;;;;;;27.30;91.60;;;;;;5127240;28;20151;-49
2022/07/04 01:28:23;;;;;;;;;;;27.20;91.60;;;;;;5127532;28;19904;-49
2022/07/04 01:30:50;;;;;;;;;;;27.20;91.80;;;;;;5127194;28;19911;-48
2022/07/04 01:33:17;;;;;;;;;;;27.20;92.00;;;;;;5127227;28;19918;-49
2022/07/04 01:35:44;;;;;;;;;;;27.20;92.00;;;;;;5127330;28;20192;-47
2022/07/04 01:38:10;;;;;;;;;;;27.20;92.10;;;;;;5126851;28;19910;-44
2022/07/04 01:40:37;;;;;;;;;;;27.10;92.40;;;;;;5126777;28;19904;-43
2022/07/04 01:43:03;;;;;;;;;;;27.20;92.20;;;;;;5126942;28;19935;-48
2022/07/04 01:45:29;;;;;;;;;;;27.20;92.30;;;;;;5126888;28;19911;-47
2022/07/04 01:47:56;;;;;;;;;;;27.20;92.40;;;;;;5126858;28;19903;-46
2022/07/04 01:50:23;;;;;;;;;;;27.10;92.50;;;;;;5126714;28;19904;-48
2022/07/04 01:52:49;;;;;;;;;;;27.10;92.60;;;;;;5126470;28;20087;-50
2022/07/04 01:55:15;;;;;;;;;;;27.20;92.70;;;;;;5126458;28;20192;-51
2022/07/04 01:57:41;;;;;;;;;;;27.10;92.70;;;;;;5126834;28;19912;-46
2022/07/04 02:02:53;;;;;;;;;;;27.10;92.80;;;;;;5126501;28;19910;-48
2022/07/04 02:05:19;;;;;;;;;;;27.10;92.80;;;;;;5126374;28;19949;-44
2022/07/04 02:07:45;;;;;;;;;;;27.10;92.80;;;;;;5126087;28;20131;-45
2022/07/04 02:10:12;;;;;;;;;;;27.10;92.70;;;;;;5126344;28;20116;-48
2022/07/04 02:15:22;;;;;;;;;;;27.10;92.90;;;;;;5126126;28;19915;-46
2022/07/04 02:17:48;;;;;;;;;;;27.10;93.00;;;;;;5126451;28;19925;-46
2022/07/04 02:20:15;;;;;;;;;;;27.10;92.90;;;;;;5126168;28;19903;-44
2022/07/04 02:22:41;;;;;;;;;;;27.10;92.80;;;;;;5125593;28;19903;-47
2022/07/04 02:25:07;;;;;;;;;;;27.10;92.60;;;;;;5126198;28;19903;-45
2022/07/04 02:27:33;;;;;;;;;;;27.00;92.40;;;;;;5125868;28;20088;-45
2022/07/04 02:29:59;;;;;;;;;;;27.00;92.40;;;;;;5125701;28;19911;-44
2022/07/04 02:32:26;;;;;;;;;;;27.00;92.30;;;;;;5125641;28;19904;-54
2022/07/04 02:34:52;;;;;;;;;;;27.00;92.30;;;;;;5125414;28;19915;-45
2022/07/04 02:37:18;;;;;;;;;;;27.00;92.20;;;;;;5125192;28;19899;-45
2022/07/04 02:39:44;;;;;;;;;;;27.10;92.10;;;;;;5125560;28;20251;-50
2022/07/04 02:42:10;;;;;;;;;;;27.10;92.10;;;;;;5125684;28;20124;-44
2022/07/04 02:44:36;;;;;;;;;;;27.00;91.90;;;;;;5125977;28;19944;-49
2022/07/04 02:47:02;;;;;;;;;;;27.00;91.90;;;;;;5125492;28;19911;-48
2022/07/04 02:49:29;;;;;;;;;;;27.00;91.80;;;;;;5126045;28;19911;-46
2022/07/04 02:51:55;;;;;;;;;;;27.00;91.80;;;;;;5125036;28;19970;-51
2022/07/04 02:54:21;;;;;;;;;;;27.00;91.80;;;;;;5125389;28;19908;-48
2022/07/04 02:56:47;;;;;;;;;;;27.00;91.80;;;;;;5124385;28;20026;-45
2022/07/04 02:59:13;;;;;;;;;;;27.00;91.80;;;;;;5125717;28;19911;-50
2022/07/04 03:01:39;;;;;;;;;;;27.00;91.80;;;;;;5125234;28;19903;-46
2022/07/04 03:04:05;;;;;;;;;;;27.00;91.90;;;;;;5125681;28;19910;-47
2022/07/04 03:06:32;;;;;;;;;;;26.90;91.90;;;;;;5125403;28;19903;-49
2022/07/04 03:08:58;;;;;;;;;;;26.90;91.90;;;;;;5125143;28;19910;-45
2022/07/04 03:11:24;;;;;;;;;;;26.90;92.00;;;;;;5125227;28;19910;-45
2022/07/04 03:13:50;;;;;;;;;;;26.90;92.10;;;;;;5125467;28;19915;-45
2022/07/04 03:16:16;;;;;;;;;;;26.90;92.20;;;;;;5125058;28;20096;-44
2022/07/04 03:18:42;;;;;;;;;;;26.90;92.30;;;;;;5125332;28;19935;-47
2022/07/04 03:21:08;;;;;;;;;;;26.90;92.30;;;;;;5125077;28;20080;-48
2022/07/04 03:23:35;;;;;;;;;;;26.90;92.40;;;;;;5125207;28;19904;-47
2022/07/04 03:26:01;;;;;;;;;;;26.90;92.30;;;;;;5124941;28;19959;-44
2022/07/04 03:28:27;;;;;;;;;;;26.90;92.20;;;;;;5125396;28;19903;-44
2022/07/04 03:30:53;;;;;;;;;;;26.90;92.20;;;;;;5124206;28;20144;-48
2022/07/04 03:33:19;;;;;;;;;;;26.80;92.30;;;;;;5125281;28;20274;-49
2022/07/04 03:35:46;;;;;;;;;;;26.80;92.20;;;;;;5124936;28;20205;-50
2022/07/04 03:38:12;;;;;;;;;;;26.80;92.20;;;;;;5125179;28;19939;-47
2022/07/04 03:40:38;;;;;;;;;;;26.80;92.20;;;;;;5124929;28;19904;-51
2022/07/04 03:43:06;;;;;;;;;;;26.80;92.30;;;;;;5124964;28;19904;-48
2022/07/04 03:45:32;;;;;;;;;;;26.80;92.10;;;;;;5124888;28;19949;-50
2022/07/04 03:47:59;;;;;;;;;;;26.80;92.10;;;;;;5124884;28;19907;-51
2022/07/04 03:50:25;;;;;;;;;;;26.80;92.10;;;;;;5124872;28;20077;-47
2022/07/04 03:52:51;;;;;;;;;;;26.80;92.10;;;;;;5124992;28;20096;-49
2022/07/04 03:55:17;;;;;;;;;;;26.70;92.30;;;;;;5124680;28;19915;-45
2022/07/04 03:57:44;;;;;;;;;;;26.80;92.30;;;;;;5124812;28;19931;-45
2022/07/04 04:00:10;;;;;;;;;;;26.70;92.30;;;;;;5124937;28;19907;-47
2022/07/04 04:02:36;;;;;;;;;;;26.70;92.20;;;;;;5124711;28;19899;-47
2022/07/04 04:07:49;;;;;;;;;;;26.70;92.20;;;;;;5127705;28;19938;-46
2022/07/04 04:10:15;;;;;;;;;;;26.70;92.30;;;;;;5128829;28;20195;-48
2022/07/04 04:12:42;;;;;;;;;;;26.70;92.30;;;;;;5128842;28;20172;-44
2022/07/04 04:15:08;;;;;;;;;;;26.70;92.40;;;;;;5128713;28;19953;-51
2022/07/04 04:17:34;;;;;;;;;;;26.70;92.40;;;;;;5128719;28;19900;-47
2022/07/04 04:20:00;;;;;;;;;;;26.70;92.40;;;;;;5128837;28;19975;-51
2022/07/04 04:22:29;;;;;;;;;;;26.60;92.40;;;;;;5128734;28;19904;-48
2022/07/04 04:24:57;;;;;;;;;;;26.60;92.50;;;;;;5128746;28;20196;-45
2022/07/04 04:27:23;;;;;;;;;;;26.60;92.60;;;;;;5128584;28;19907;-47
2022/07/04 04:29:49;;;;;;;;;;;26.60;92.70;;;;;;5128401;28;19953;-48
2022/07/04 04:32:15;;;;;;;;;;;26.70;92.70;;;;;;5128367;28;19937;-50
2022/07/04 04:34:41;;;;;;;;;;;26.60;92.70;;;;;;5128389;28;19960;-46
2022/07/04 04:37:07;;;;;;;;;;;26.60;92.60;;;;;;5128514;28;19968;-48
2022/07/04 04:39:33;;;;;;;;;;;26.60;92.50;;;;;;5128087;28;19903;-46
2022/07/04 04:41:59;;;;;;;;;;;26.60;92.60;;;;;;5128307;28;19925;-45
2022/07/04 04:44:25;;;;;;;;;;;26.60;92.70;;;;;;5128636;28;19941;-43
2022/07/04 04:46:52;;;;;;;;;;;26.60;92.70;;;;;;5128058;28;20249;-46
2022/07/04 04:49:18;;;;;;;;;;;26.60;92.90;;;;;;5128388;28;19945;-50
2022/07/04 04:51:44;;;;;;;;;;;26.60;92.90;;;;;;5128208;28;19973;-49
2022/07/04 04:54:11;;;;;;;;;;;26.60;93.10;;;;;;5128304;28;19915;-51
2022/07/04 04:56:37;;;;;;;;;;;26.60;93.20;;;;;;5128252;28;19916;-50
2022/07/04 04:59:03;;;;;;;;;;;26.70;93.20;;;;;;5109934;28;19904;-45
2022/07/04 05:01:29;;;;;;;;;;;26.60;93.20;;;;;;5127925;28;19945;-50
2022/07/04 05:03:55;;;;;;;;;;;26.60;93.10;;;;;;5127930;28;20184;-48
2022/07/04 05:06:22;;;;;;;;;;;26.60;93.20;;;;;;5127957;28;19907;-49
2022/07/04 05:08:48;;;;;;;;;;;26.70;93.30;;;;;;5128037;28;20180;-46
2022/07/04 05:11:14;;;;;;;;;;;26.70;93.30;;;;;;5127572;28;19910;-47
2022/07/04 05:13:40;;;;;;;;;;;26.70;93.50;;;;;;5127906;28;20087;-45
2022/07/04 05:16:06;;;;;;;;;;;26.70;93.60;;;;;;5127733;28;20211;-49
2022/07/04 05:18:33;;;;;;;;;;;26.70;93.50;;;;;;5126759;28;19911;-46
2022/07/04 05:20:59;;;;;;;;;;;26.60;93.60;;;;;;5127647;28;19910;-45
2022/07/04 05:23:25;;;;;;;;;;;26.60;93.90;;;;;;5127666;28;19911;-49
2022/07/04 05:25:51;;;;;;;;;;;26.60;94.10;;;;;;5127309;28;19904;-49
2022/07/04 05:28:17;;;;;;;;;;;26.60;94.10;;;;;;5127935;28;19903;-47
2022/07/04 05:30:43;;;;;;;;;;;26.60;94.20;;;;;;5127463;28;19979;-48
2022/07/04 05:33:09;;;;;;;;;;;26.60;94.20;;;;;;5127277;28;20215;-48
2022/07/04 05:35:35;;;;;;;;;;;26.60;94.20;;;;;;5127311;28;19929;-45
2022/07/04 05:38:02;;;;;;;;;;;26.50;94.40;;;;;;5127701;28;19903;-46
2022/07/04 05:40:28;;;;;;;;;;;26.60;94.30;;;;;;5127436;28;19904;-44
2022/07/04 05:42:54;;;;;;;;;;;26.60;94.50;;;;;;5127306;28;19903;-45
2022/07/04 05:45:20;;;;;;;;;;;26.50;94.60;;;;;;5127171;28;19903;-46
2022/07/04 05:47:46;;;;;;;;;;;26.50;94.60;;;;;;5126933;28;19903;-46
2022/07/04 05:50:12;;;;;;;;;;;26.50;94.60;;;;;;5126887;28;20194;-45
2022/07/04 05:52:38;;;;;;;;;;;26.50;94.80;;;;;;5126842;28;19904;-50
2022/07/04 05:55:06;;;;;;;;;;;26.50;94.70;;;;;;5126712;28;19945;-46
2022/07/04 05:57:32;;;;;;;;;;;26.50;94.80;;;;;;5126728;28;19923;-45
2022/07/04 05:59:58;;;;;;;;;;;26.50;94.90;;;;;;5126874;28;19904;-48
2022/07/04 06:02:24;;;;;;;;;;;26.50;94.90;;;;;;5126797;28;20243;-46
2022/07/04 06:04:51;;;;;;;;;;;26.50;95.00;;;;;;5126377;28;19910;-46
2022/07/04 06:07:17;;;;;;;;;;;26.50;95.00;;;;;;5126755;28;20001;-45
2022/07/04 06:09:44;;;;;;;;;;;26.50;95.00;;;;;;5126531;28;19904;-48
2022/07/04 06:12:10;;;;;;;;;;;26.50;95.10;;;;;;5126246;28;19899;-49
2022/07/04 06:14:36;;;;;;;;;;;26.50;95.10;;;;;;5126879;28;19915;-45
2022/07/04 06:17:02;;;;;;;;;;;26.40;95.20;;;;;;5126241;28;20096;-49
2022/07/04 06:19:29;;;;;;;;;;;26.50;95.10;;;;;;5126727;28;19910;-45
2022/07/04 06:21:55;;;;;;;;;;;26.50;95.10;;;;;;5126493;28;19911;-44
2022/07/04 06:24:22;;;;;;;;;;;26.50;95.20;;;;;;5126572;28;19938;-46
2022/07/04 06:26:49;;;;;;;;;;;26.50;95.20;;;;;;5126353;28;19904;-49
2022/07/04 06:29:15;;;;;;;;;;;26.40;95.30;;;;;;5126790;28;20211;-47
2022/07/04 06:31:41;;;;;;;;;;;26.40;95.30;;;;;;5126146;28;19939;-44
2022/07/04 06:36:51;;;;;;;;;;;26.40;95.30;;;;;;5126391;28;19980;-44
2022/07/04 06:39:18;;;;;;;;;;;26.40;95.40;;;;;;5126423;28;19904;-44
2022/07/04 06:41:44;;;;;;;;;;;26.40;95.40;;;;;;5125858;28;19904;-43
2022/07/04 06:44:10;;;;;;;;;;;26.40;95.40;;;;;;5126504;28;19904;-44
2022/07/04 06:46:36;;;;;;;;;;;26.40;95.40;;;;;;5125911;28;19904;-46
2022/07/04 06:49:02;;;;;;;;;;;26.40;95.40;;;;;;5126291;28;20026;-48
2022/07/04 06:51:29;;;;;;;;;;;26.40;95.60;;;;;;5125667;28;19970;-44
2022/07/04 06:53:55;;;;;;;;;;;26.40;95.40;;;;;;5126116;28;19907;-44
2022/07/04 06:56:21;;;;;;;;;;;26.40;95.40;;;;;;5125802;28;20091;-44
2022/07/04 06:58:47;;;;;;;;;;;26.40;95.40;;;;;;5126036;28;19975;-48
2022/07/04 07:01:15;;;;;;;;;;;26.40;95.40;;;;;;5125859;28;19935;-44
2022/07/04 07:03:41;;;;;;;;;;;26.30;95.30;;;;;;5125676;28;19904;-44
2022/07/04 07:06:07;;;;;;;;;;;26.30;95.40;;;;;;5125707;28;19915;-43
2022/07/04 07:08:33;;;;;;;;;;;26.30;95.20;;;;;;5125568;28;19904;-51
2022/07/04 07:11:21;;;;;;;;;;;26.30;95.20;;;;;;5125450;28;19911;-49
2022/07/04 07:13:47;;;;;;;;;;;26.30;95.10;;;;;;5125881;28;19910;-52
2022/07/04 07:16:13;;;;;;;;;;;26.30;95.00;;;;;;5125801;28;19904;-44
2022/07/04 07:18:39;;;;;;;;;;;26.20;94.90;;;;;;5125509;28;19970;-43
2022/07/04 07:21:05;;;;;;;;;;;26.20;94.90;;;;;;5125338;28;19904;-44
2022/07/04 07:23:32;;;;;;;;;;;26.20;94.90;;;;;;5125761;28;19978;-50
2022/07/04 07:25:58;;;;;;;;;;;26.20;94.80;;;;;;5124943;28;19904;-44
2022/07/04 07:28:24;;;;;;;;;;;26.20;94.80;;;;;;5125391;28;19904;-46
2022/07/04 07:30:50;;;;;;;;;;;26.20;94.80;;;;;;5125071;28;19904;-43
2022/07/04 07:33:16;;;;;;;;;;;26.20;94.80;;;;;;5124853;28;19915;-44
2022/07/04 07:35:42;;;;;;;;;;;26.20;94.80;;;;;;5125144;28;20152;-46
2022/07/04 07:38:08;;;;;;;;;;;26.20;94.80;;;;;;5125261;28;19904;-44
2022/07/04 07:40:34;;;;;;;;;;;26.10;94.70;;;;;;5124801;28;19904;-55
2022/07/04 07:43:01;;;;;;;;;;;26.10;94.70;;;;;;5124701;28;19904;-48
2022/07/04 07:45:27;;;;;;;;;;;26.10;94.70;;;;;;5125016;28;19904;-49
2022/07/04 07:47:53;;;;;;;;;;;26.10;94.80;;;;;;5124921;28;19926;-48
2022/07/04 07:50:19;;;;;;;;;;;26.10;94.80;;;;;;5124951;28;19927;-45
2022/07/04 07:52:45;;;;;;;;;;;26.10;94.80;;;;;;5124925;28;20099;-42
2022/07/04 07:55:11;;;;;;;;;;;26.10;94.80;;;;;;5124579;28;20129;-48
2022/07/04 07:57:37;;;;;;;;;;;26.10;94.80;;;;;;5124829;28;19910;-49
2022/07/04 08:00:04;;;;;;;;;;;26.10;94.80;;;;;;5124879;28;19911;-44
2022/07/04 08:05:14;;;;;;;;;;;26.10;94.80;;;;;;5124822;28;19911;-54
2022/07/04 08:07:40;;;;;;;;;;;26.10;94.90;;;;;;5124885;28;19910;-43
2022/07/04 08:10:07;;;;;;;;;;;26.00;94.90;;;;;;5124557;28;19912;-42
2022/07/04 08:12:33;;;;;;;;;;;26.00;94.90;;;;;;5125109;28;19974;-42
2022/07/04 08:14:59;;;;;;;;;;;26.00;94.80;;;;;;5124943;28;20247;-42
2022/07/04 08:17:26;;;;;;;;;;;26.00;94.80;;;;;;5125080;28;19903;-50
2022/07/04 08:19:52;;;;;;;;;;;26.00;94.80;;;;;;5124981;28;20216;-50
2022/07/04 08:22:18;;;;;;;;;;;26.00;94.80;;;;;;5124722;28;19922;-51
2022/07/04 08:24:44;;;;;;;;;;;26.10;94.80;;;;;;5124430;28;19963;-51
2022/07/04 08:27:11;;;;;;;;;;;26.00;94.70;;;;;;5123995;28;20265;-49
2022/07/04 08:29:37;;;;;;;;;;;26.00;94.70;;;;;;5122800;28;20215;-43
2022/07/04 08:32:03;;;;;;;;;;;26.00;94.70;;;;;;5122710;28;19907;-43
2022/07/04 08:34:29;;;;;;;;;;;26.00;94.60;;;;;;5122698;28;19911;-42
2022/07/04 08:36:55;;;;;;;;;;;26.00;94.60;;;;;;5122937;28;20302;-47
2022/07/04 08:39:21;;;;;;;;;;;26.00;94.60;;;;;;5123308;28;20081;-44
2022/07/04 08:41:52;;;;;;;;;;;26.00;94.60;;;;;;5122707;28;19904;-50
2022/07/04 08:44:20;;;;;;;;;;;26.00;94.50;;;;;;5124780;28;19911;-50
2022/07/04 08:46:47;;;;;;;;;;;26.00;94.50;;;;;;5124210;28;19903;-53
2022/07/04 08:49:24;;;;;;;;;;;26.00;94.50;;;;;;5124864;28;20002;-44
2022/07/04 08:51:52;;;;;;;;;;;26.00;94.50;;;;;;5124505;28;19962;-46
2022/07/04 08:59:50;;;;;;;;;;;26.00;94.40;;;;;;5128164;28;20001;-44
2022/07/04 09:02:19;;;;;;;;;;;25.90;94.30;;;;;;5127734;28;19937;-50
2022/07/04 09:04:45;;;;;;;;;;;25.90;94.30;;;;;;5127750;28;20099;-50
2022/07/04 09:07:12;;;;;;;;;;;26.00;94.30;;;;;;5128096;28;19907;-49
2022/07/04 09:09:40;;;;;;;;;;;25.90;94.30;;;;;;5128046;28;19910;-43
2022/07/04 09:12:06;;;;;;;;;;;25.90;94.20;;;;;;5127557;28;19900;-44
2022/07/04 09:14:33;;;;;;;;;;;25.90;94.20;;;;;;5128454;28;20223;-49
2022/07/04 09:16:59;;;;;;;;;;;25.90;94.30;;;;;;5128171;28;19967;-44
2022/07/04 09:19:26;;;;;;;;;;;25.90;94.20;;;;;;5128415;28;19904;-50
2022/07/04 09:21:52;;;;;;;;;;;25.90;94.20;;;;;;5127500;28;19911;-45
2022/07/04 09:24:38;;;;;;;;;;;25.90;94.20;;;;;;5128156;28;20001;-44
2022/07/04 09:27:04;;;;;;;;;;;25.90;94.30;;;;;;5127329;28;19975;-48
2022/07/04 09:29:31;;;;;;;;;;;25.90;94.40;;;;;;5128203;28;19903;-42
2022/07/04 09:31:57;;;;;;;;;;;25.90;94.50;;;;;;5127621;28;19935;-44
2022/07/04 09:34:23;;;;;;;;;;;25.90;94.50;;;;;;5127043;28;19919;-53
2022/07/04 09:36:55;;;;;;;;;;;25.90;94.50;;;;;;5127468;28;19961;-44
2022/07/04 09:39:23;;;;;;;;;;;25.90;94.50;;;;;;5127036;28;19911;-45
2022/07/04 09:41:50;;;;;;;;;;;25.90;94.50;;;;;;5128051;28;19903;-44
2022/07/04 09:44:16;;;;;;;;;;;25.90;94.50;;;;;;5127666;28;20088;-50
2022/07/04 09:46:42;;;;;;;;;;;25.90;94.60;;;;;;5127448;28;19903;-44
2022/07/04 09:49:10;;;;;;;;;;;25.90;94.70;;;;;;5127633;28;20226;-45
2022/07/04 09:51:39;;;;;;;;;;;25.90;94.80;;;;;;5127240;28;19911;-46
2022/07/04 09:54:14;;;;;;;;;;;25.90;94.80;;;;;;5127191;28;20178;-49
2022/07/04 09:56:40;;;;;;;;;;;25.90;94.80;;;;;;5127092;28;19915;-44
2022/07/04 09:59:07;;;;;;;;;;;25.90;94.80;;;;;;5127177;28;19900;-49
2022/07/04 10:01:33;;;;;;;;;;;25.90;94.80;;;;;;5126772;28;19914;-43
2022/07/04 10:03:59;;;;;;;;;;;25.90;94.80;;;;;;5127429;28;19914;-50
2022/07/04 10:06:26;;;;;;;;;;;25.90;94.80;;;;;;5126673;28;19908;-44
2022/07/04 10:08:52;;;;;;;;;;;25.80;94.70;;;;;;5127179;28;19922;-54
2022/07/04 10:11:18;;;;;;;;;;;25.80;94.80;;;;;;5126909;28;20100;-43
2022/07/04 10:13:44;;;;;;;;;;;25.80;94.90;;;;;;5126935;28;19900;-43
2022/07/04 10:16:11;;;;;;;;;;;25.80;95.00;;;;;;5126941;28;20140;-44
2022/07/04 10:18:37;;;;;;;;;;;25.80;95.10;;;;;;5126737;28;19899;-44
2022/07/04 10:21:03;;;;;;;;;;;25.80;95.10;;;;;;5126463;28;19911;-44
2022/07/04 10:23:33;;;;;;;;;;;25.80;95.20;;;;;;5126216;28;20009;-45
2022/07/04 10:26:00;;;;;;;;;;;25.80;95.20;;;;;;5126390;28;19914;-45
2022/07/04 10:28:26;;;;;;;;;;;25.80;95.30;;;;;;5126792;28;19904;-43
2022/07/04 10:30:53;;;;;;;;;;;25.80;95.20;;;;;;5126189;28;19942;-46
2022/07/04 10:33:29;;;;;;;;;;;25.80;95.20;;;;;;5125885;28;19919;-49
2022/07/04 10:36:13;;;;;;;;;;;25.80;95.60;;;;;;5125959;28;20257;-51
2022/07/04 10:38:48;;;;;;;;;;;25.80;95.40;;;;;;5126304;28;19911;-45
2022/07/04 10:41:14;;;;;;;;;;;25.80;95.40;;;;;;5125811;28;20134;-45
2022/07/04 10:43:59;;;;;;;;;;;25.80;95.30;;;;;;5126126;28;20184;-47
2022/07/04 10:46:27;;;;;;;;;;;25.80;95.30;;;;;;5125736;28;19910;-46
2022/07/04 10:48:59;;;;;;;;;;;25.80;95.50;;;;;;5126137;28;19910;-48
2022/07/04 10:51:45;;;;;;;;;;;25.80;95.50;;;;;;5126012;28;19904;-50
2022/07/04 10:54:13;;;;;;;;;;;25.80;95.50;;;;;;5125948;28;19907;-45
2022/07/04 10:56:42;;;;;;;;;;;25.80;95.60;;;;;;5125985;28;19931;-44
2022/07/04 10:59:09;;;;;;;;;;;25.80;95.50;;;;;;5125919;28;20167;-46
2022/07/04 11:01:36;;;;;;;;;;;25.80;95.60;;;;;;5125754;28;19911;-46
2022/07/04 11:04:02;;;;;;;;;;;25.80;95.60;;;;;;5125892;28;19903;-50
2022/07/04 11:06:38;;;;;;;;;;;25.80;95.60;;;;;;5125991;28;19903;-46
2022/07/04 11:09:21;;;;;;;;;;;25.80;95.60;;;;;;5125183;28;19908;-46
2022/07/04 11:11:50;;;;;;;;;;;25.70;95.50;;;;;;5125602;28;19911;-52
2022/07/04 11:14:32;;;;;;;;;;;25.80;95.50;;;;;;5125705;28;19907;-46
2022/07/04 11:17:00;;;;;;;;;;;25.80;95.60;;;;;;5124790;28;19904;-44
2022/07/04 11:19:27;;;;;;;;;;;25.80;95.80;;;;;;5125754;28;19910;-46
2022/07/04 11:21:57;;;;;;;;;;;25.70;95.90;;;;;;5125869;28;20132;-48
2022/07/04 11:24:23;;;;;;;;;;;25.70;95.80;;;;;;5125728;28;19910;-44
2022/07/04 11:26:50;;;;;;;;;;;25.70;95.80;;;;;;5125178;28;19931;-47
2022/07/04 11:29:17;;;;;;;;;;;25.70;95.70;;;;;;5125523;28;19952;-43
2022/07/04 11:31:45;;;;;;;;;;;25.70;96.00;;;;;;5125360;28;19911;-48
2022/07/04 11:34:11;;;;;;;;;;;25.70;95.70;;;;;;5124787;28;19912;-47
2022/07/04 11:36:41;;;;;;;;;;;25.70;95.80;;;;;;5124392;28;20206;-44
2022/07/04 11:39:09;;;;;;;;;;;25.70;95.90;;;;;;5125916;28;20004;-45
2022/07/04 11:47:24;;;;;;;;;;;25.70;95.90;;;;;;5124942;28;19914;-46
2022/07/04 11:49:51;;;;;;;;;;;25.70;96.00;;;;;;5124860;28;19907;-45
2022/07/04 11:52:19;;;;;;;;;;;25.70;96.10;;;;;;5124630;28;19904;-47
2022/07/04 11:54:46;;;;;;;;;;;25.70;96.20;;;;;;5124786;28;19912;-49
2022/07/04 11:57:12;;;;;;;;;;;25.70;96.10;;;;;;5124709;28;20211;-46
2022/07/04 11:59:38;;;;;;;;;;;25.70;96.10;;;;;;5124605;28;19908;-44
2022/07/04 12:02:15;;;;;;;;;;;25.70;96.20;;;;;;5124731;28;19904;-46
2022/07/04 12:04:41;;;;;;;;;;;25.80;96.30;;;;;;5124926;28;19912;-47
2022/07/04 12:07:15;;;;;;;;;;;25.80;96.30;;;;;;5124963;28;20190;-44
2022/07/04 12:09:41;;;;;;;;;;;25.80;96.30;;;;;;5124850;28;19915;-47
2022/07/04 12:12:08;;;;;;;;;;;25.80;96.30;;;;;;5124519;28;19911;-46
2022/07/04 12:14:34;;;;;;;;;;;25.80;96.40;;;;;;5125050;28;19942;-53
2022/07/04 12:17:09;;;;;;;;;;;25.80;96.60;;;;;;5124719;28;19908;-45
2022/07/04 12:19:36;;;;;;;;;;;25.80;96.50;;;;;;5124978;28;19907;-49
2022/07/04 12:22:02;;;;;;;;;;;25.80;96.50;;;;;;5124603;28;19972;-44
2022/07/04 12:24:29;;;;;;;;;;;25.80;96.50;;;;;;5125444;28;19908;-45
2022/07/04 12:26:55;;;;;;;;;;;25.80;96.60;;;;;;5124635;28;19943;-42
2022/07/04 12:29:22;;;;;;;;;;;25.80;96.70;;;;;;5128618;28;19915;-45
2022/07/04 12:31:51;;;;;;;;;;;25.80;96.70;;;;;;5128521;28;19908;-43
2022/07/04 12:34:17;;;;;;;;;;;25.80;96.70;;;;;;5128182;28;20050;-43
2022/07/04 12:36:50;;;;;;;;;;;25.80;96.70;;;;;;5128451;28;19916;-44
2022/07/04 12:39:37;;;;;;;;;;;25.80;96.50;;;;;;5128915;28;19907;-43
2022/07/04 12:42:04;;;;;;;;;;;25.80;96.60;;;;;;5128276;28;19908;-52
2022/07/04 12:44:30;;;;;;;;;;;25.80;96.60;;;;;;5129138;28;19903;-44
2022/07/04 12:46:57;;;;;;;;;;;25.80;96.70;;;;;;5128074;28;19912;-43
2022/07/04 12:49:23;;;;;;;;;;;25.80;96.70;;;;;;5128669;28;19910;-48
2022/07/04 12:51:49;;;;;;;;;;;25.80;96.80;;;;;;5128360;28;19908;-42
2022/07/04 12:54:16;;;;;;;;;;;25.80;96.80;;;;;;5127843;28;19908;-45
2022/07/04 12:56:43;;;;;;;;;;;25.80;96.80;;;;;;5128079;28;19911;-50
2022/07/04 12:59:11;;;;;;;;;;;25.80;96.80;;;;;;5128762;28;19903;-43
2022/07/04 13:01:37;;;;;;;;;;;25.80;96.80;;;;;;5128233;28;20104;-44
2022/07/04 13:04:03;;;;;;;;;;;25.90;96.80;;;;;;5128584;28;19907;-43
2022/07/04 13:06:30;;;;;;;;;;;25.90;96.90;;;;;;5128257;28;20008;-43
2022/07/04 13:08:56;;;;;;;;;;;25.80;96.90;;;;;;5128369;28;19931;-45
2022/07/04 13:14:07;;;;;;;;;;;25.90;96.90;;;;;;5128250;28;19914;-46
2022/07/04 13:16:33;;;;;;;;;;;25.80;96.90;;;;;;5127743;28;19955;-45
2022/07/04 13:19:00;;;;;;;;;;;25.90;96.90;;;;;;5128142;28;19904;-45
2022/07/04 13:21:26;;;;;;;;;;;25.90;96.90;;;;;;5127563;28;19978;-47
2022/07/04 13:23:52;;;;;;;;;;;25.80;96.80;;;;;;5128009;28;19904;-47
2022/07/04 13:26:18;;;;;;;;;;;25.90;96.90;;;;;;5127901;28;19947;-50
2022/07/04 13:28:44;;;;;;;;;;;25.90;96.90;;;;;;5128084;28;19910;-48
2022/07/04 13:31:11;;;;;;;;;;;25.90;96.90;;;;;;5127543;28;19951;-46
2022/07/04 13:33:37;;;;;;;;;;;25.80;96.80;;;;;;5127382;28;19919;-46
2022/07/04 13:36:03;;;;;;;;;;;25.80;96.90;;;;;;5127132;28;19912;-46
2022/07/04 13:38:30;;;;;;;;;;;25.80;96.90;;;;;;5126987;28;20017;-43
2022/07/04 13:40:56;;;;;;;;;;;25.80;97.00;;;;;;5126775;28;19908;-47
2022/07/04 13:43:23;;;;;;;;;;;25.80;96.90;;;;;;5127223;28;19907;-45
2022/07/04 13:45:50;;;;;;;;;;;25.80;97.00;;;;;;5127033;28;19908;-46
2022/07/04 13:48:16;;;;;;;;;;;25.90;97.10;;;;;;5127437;28;19907;-45
2022/07/04 13:50:42;;;;;;;;;;;25.90;97.10;;;;;;5127037;28;19953;-47
2022/07/04 13:53:09;;;;;;;;;;;25.80;97.00;;;;;;5127435;28;19949;-45
2022/07/04 13:55:35;;;;;;;;;;;25.90;97.10;;;;;;5127022;28;19946;-46
2022/07/04 13:58:02;;;;;;;;;;;25.80;97.10;;;;;;5127010;28;19956;-52
2022/07/04 14:00:28;;;;;;;;;;;25.80;97.10;;;;;;5126785;28;19978;-47
2022/07/04 14:02:54;;;;;;;;;;;25.90;97.10;;;;;;5126708;28;19950;-48
2022/07/04 14:05:21;;;;;;;;;;;25.90;97.00;;;;;;5126632;28;20189;-47
2022/07/04 14:07:47;;;;;;;;;;;25.80;97.00;;;;;;5126477;28;19908;-49
2022/07/04 14:10:14;;;;;;;;;;;25.80;97.10;;;;;;5126421;28;20111;-45
2022/07/04 14:12:40;;;;;;;;;;;25.90;97.20;;;;;;5126519;28;19907;-43
2022/07/04 14:15:06;;;;;;;;;;;25.90;97.10;;;;;;5126128;28;20196;-46
2022/07/04 14:17:32;;;;;;;;;;;25.80;97.10;;;;;;5126417;28;19908;-45
2022/07/04 14:19:59;;;;;;;;;;;25.80;97.10;;;;;;5126270;28;20192;-53
2022/07/04 14:22:25;;;;;;;;;;;25.90;97.20;;;;;;5126085;28;19978;-44
2022/07/04 14:24:51;;;;;;;;;;;25.90;97.20;;;;;;5125324;28;19911;-54
2022/07/04 14:27:17;;;;;;;;;;;25.90;97.10;;;;;;5104637;28;20134;-46
2022/07/04 14:29:43;;;;;;;;;;;25.90;97.10;;;;;;5125558;28;19908;-46
2022/07/04 14:32:09;;;;;;;;;;;25.90;97.20;;;;;;5125120;28;19907;-43
2022/07/04 14:34:36;;;;;;;;;;;25.90;97.30;;;;;;5125867;28;19930;-44
2022/07/04 14:37:02;;;;;;;;;;;25.90;97.20;;;;;;5125649;28;19982;-47
2022/07/04 14:39:28;;;;;;;;;;;25.90;97.20;;;;;;5126196;28;19907;-46
2022/07/04 14:41:54;;;;;;;;;;;25.90;97.10;;;;;;5125891;28;19957;-46